Time;durP1;ratioP1;P1;durP2;ratioP2;P2;SDS_P1;SDS_P2;PMS_P1;PMS_P2;Temp;Humidity;BMP_temperature;BMP_pressure;BME280_temperature;BME280_humidity;BME280_pressure;Samples;Min_cycle;Max_cycle;Signal;HPM_P1;HPM_P2
2023/04/24 00:01:19;;;;;;;0.20;0.20;;;;;;;;;;5058461;28;20326;-62
2023/04/24 00:03:46;;;;;;;0.37;0.30;;;;;;;;;;5055429;28;20207;-63
2023/04/24 00:06:13;;;;;;;0.77;0.30;;;;;;;;;;5056223;28;20192;-63
2023/04/24 00:08:40;;;;;;;1.47;0.50;;;;;;;;;;5057406;28;20211;-63
2023/04/24 00:11:07;;;;;;;1.93;0.30;;;;;;;;;;5058635;28;20203;-62
2023/04/24 00:13:34;;;;;;;0.20;0.20;;;;;;;;;;5054507;28;20222;-63
2023/04/24 00:16:01;;;;;;;0.40;0.40;;;;;;;;;;5057320;28;20279;-62
2023/04/24 00:18:30;;;;;;;0.77;0.40;;;;;;;;;;5051600;28;20207;-63
2023/04/24 00:20:57;;;;;;;0.30;0.30;;;;;;;;;;5063569;28;20203;-63
2023/04/24 00:23:24;;;;;;;3.20;0.50;;;;;;;;;;5062725;28;20941;-63
2023/04/24 00:25:51;;;;;;;2.90;0.30;;;;;;;;;;5067017;28;20203;-63
2023/04/24 00:28:18;;;;;;;0.40;0.20;;;;;;;;;;5060377;28;20260;-63
2023/04/24 00:30:45;;;;;;;0.40;0.40;;;;;;;;;;5068626;28;20682;-62
2023/04/24 00:33:12;;;;;;;0.30;0.30;;;;;;;;;;5060239;28;20203;-63
2023/04/24 00:35:40;;;;;;;0.27;0.27;;;;;;;;;;5066074;28;20226;-63
2023/04/24 00:38:07;;;;;;;0.37;0.37;;;;;;;;;;5060522;28;20282;-63
2023/04/24 00:40:34;;;;;;;0.37;0.37;;;;;;;;;;5058877;28;20402;-63
2023/04/24 00:43:01;;;;;;;0.30;0.30;;;;;;;;;;5052206;28;20205;-63
2023/04/24 00:45:31;;;;;;;0.33;0.33;;;;;;;;;;5061291;28;20319;-62
2023/04/24 00:47:58;;;;;;;0.23;0.23;;;;;;;;;;5056506;28;20208;-63
2023/04/24 00:50:26;;;;;;;0.50;0.50;;;;;;;;;;5049184;28;20257;-63
2023/04/24 00:52:54;;;;;;;1.80;0.33;;;;;;;;;;5060770;28;20210;-62
2023/04/24 00:55:21;;;;;;;0.40;0.40;;;;;;;;;;5063193;28;20226;-62
2023/04/24 00:57:50;;;;;;;0.30;0.30;;;;;;;;;;5052080;28;20203;-62
2023/04/24 01:00:17;;;;;;;0.43;0.43;;;;;;;;;;5047212;28;20207;-63
2023/04/24 01:02:45;;;;;;;1.27;0.40;;;;;;;;;;5054553;28;20202;-62
2023/04/24 01:05:12;;;;;;;0.20;0.20;;;;;;;;;;5053055;28;20247;-62
2023/04/24 01:07:40;;;;;;;0.30;0.30;;;;;;;;;;5056407;28;20687;-62
2023/04/24 01:10:10;;;;;;;0.30;0.30;;;;;;;;;;5047179;28;20612;-60
2023/04/24 01:12:37;;;;;;;0.30;0.30;;;;;;;;;;5046658;28;20289;-63
2023/04/24 01:15:05;;;;;;;2.20;0.40;;;;;;;;;;5057763;28;20256;-63
2023/04/24 01:17:32;;;;;;;0.30;0.30;;;;;;;;;;5066380;28;20222;-63
2023/04/24 01:19:59;;;;;;;0.37;0.30;;;;;;;;;;5055103;28;20217;-63
2023/04/24 01:22:28;;;;;;;0.30;0.30;;;;;;;;;;5067558;28;20263;-62
2023/04/24 01:24:55;;;;;;;0.40;0.40;;;;;;;;;;5049784;28;20211;-63
2023/04/24 01:27:22;;;;;;;0.73;0.53;;;;;;;;;;5049220;28;20210;-63
2023/04/24 01:29:51;;;;;;;0.30;0.30;;;;;;;;;;5051042;28;20254;-62
2023/04/24 01:32:19;;;;;;;0.33;0.33;;;;;;;;;;5054440;28;20226;-63
2023/04/24 01:34:46;;;;;;;1.23;0.43;;;;;;;;;;5064113;28;20207;-63
2023/04/24 01:37:13;;;;;;;0.40;0.40;;;;;;;;;;5062619;28;20219;-63
2023/04/24 01:39:42;;;;;;;0.50;0.50;;;;;;;;;;5051108;28;20245;-62
2023/04/24 01:42:09;;;;;;;1.50;0.60;;;;;;;;;;5053421;28;20952;-62
2023/04/24 01:44:36;;;;;;;0.60;0.33;;;;;;;;;;5048886;28;20226;-62
2023/04/24 01:47:03;;;;;;;0.50;0.50;;;;;;;;;;5060251;28;20260;-63
2023/04/24 01:49:30;;;;;;;0.37;0.37;;;;;;;;;;5061272;28;20641;-62
2023/04/24 01:51:57;;;;;;;0.37;0.37;;;;;;;;;;5054653;28;20693;-62
2023/04/24 01:54:24;;;;;;;0.20;0.20;;;;;;;;;;5054615;28;20207;-62
2023/04/24 01:56:53;;;;;;;1.40;0.30;;;;;;;;;;5061652;28;20222;-62
2023/04/24 01:59:22;;;;;;;0.30;0.30;;;;;;;;;;5050854;28;20670;-62
2023/04/24 02:01:49;;;;;;;0.30;0.30;;;;;;;;;;5065907;28;20215;-62
2023/04/24 02:04:16;;;;;;;1.23;0.40;;;;;;;;;;5066631;28;20221;-62
2023/04/24 02:06:43;;;;;;;1.03;0.50;;;;;;;;;;5061243;28;20297;-62
2023/04/24 02:09:10;;;;;;;0.43;0.43;;;;;;;;;;5065527;28;20211;-62
2023/04/24 02:11:37;;;;;;;0.23;0.23;;;;;;;;;;5052444;28;20655;-63
2023/04/24 02:14:05;;;;;;;0.90;0.40;;;;;;;;;;5047712;28;20253;-63
2023/04/24 02:16:33;;;;;;;0.30;0.30;;;;;;;;;;5061280;28;20227;-63
2023/04/24 02:19:00;;;;;;;0.63;0.50;;;;;;;;;;5061925;28;20214;-63
2023/04/24 02:21:28;;;;;;;0.30;0.30;;;;;;;;;;5061863;28;20215;-62
2023/04/24 02:23:55;;;;;;;1.30;0.30;;;;;;;;;;5070249;28;20258;-62
2023/04/24 02:26:22;;;;;;;0.20;0.20;;;;;;;;;;5069601;28;20199;-62
2023/04/24 02:28:49;;;;;;;1.43;0.30;;;;;;;;;;5067135;28;20203;-62
2023/04/24 02:31:17;;;;;;;0.40;0.30;;;;;;;;;;5063638;28;20214;-62
2023/04/24 02:33:44;;;;;;;1.13;0.40;;;;;;;;;;5054569;28;20272;-62
2023/04/24 02:36:13;;;;;;;0.50;0.50;;;;;;;;;;5059715;28;20234;-62
2023/04/24 02:38:40;;;;;;;1.50;0.40;;;;;;;;;;5070280;28;20689;-62
2023/04/24 02:41:07;;;;;;;0.40;0.33;;;;;;;;;;5062384;28;20239;-62
2023/04/24 02:43:34;;;;;;;0.30;0.30;;;;;;;;;;5062058;28;20209;-62
2023/04/24 02:46:01;;;;;;;1.47;0.30;;;;;;;;;;5066555;28;20204;-62
2023/04/24 02:48:29;;;;;;;0.30;0.30;;;;;;;;;;5052361;28;20262;-62
2023/04/24 02:50:57;;;;;;;0.80;0.40;;;;;;;;;;5054232;28;20230;-62
2023/04/24 02:53:24;;;;;;;0.27;0.27;;;;;;;;;;5067703;28;20277;-62
2023/04/24 02:55:51;;;;;;;3.60;0.30;;;;;;;;;;5068544;28;20215;-62
2023/04/24 02:58:19;;;;;;;0.60;0.30;;;;;;;;;;5065906;28;20206;-62
2023/04/24 03:00:47;;;;;;;0.60;0.40;;;;;;;;;;5061387;28;20231;-62
2023/04/24 03:03:14;;;;;;;0.30;0.30;;;;;;;;;;5064334;28;20311;-62
2023/04/24 03:05:43;;;;;;;0.77;0.30;;;;;;;;;;5055287;28;20212;-62
2023/04/24 03:08:11;;;;;;;1.00;0.40;;;;;;;;;;5054426;28;20282;-62
2023/04/24 03:10:38;;;;;;;0.67;0.50;;;;;;;;;;5061411;28;20301;-62
2023/04/24 03:13:05;;;;;;;0.30;0.30;;;;;;;;;;5065758;28;20195;-62
2023/04/24 03:15:32;;;;;;;0.37;0.37;;;;;;;;;;5053922;28;20287;-62
2023/04/24 03:18:00;;;;;;;0.30;0.30;;;;;;;;;;5058027;28;20274;-62
2023/04/24 03:20:27;;;;;;;0.50;0.50;;;;;;;;;;5059251;28;20374;-61
2023/04/24 03:22:56;;;;;;;0.47;0.40;;;;;;;;;;5067882;28;20218;-62
2023/04/24 03:25:24;;;;;;;0.20;0.20;;;;;;;;;;5064363;28;20630;-62
2023/04/24 03:27:51;;;;;;;0.20;0.20;;;;;;;;;;5068105;28;20649;-62
2023/04/24 03:30:18;;;;;;;0.37;0.27;;;;;;;;;;5059833;28;20257;-62
2023/04/24 03:32:45;;;;;;;0.30;0.30;;;;;;;;;;5069182;28;20625;-62
2023/04/24 03:35:12;;;;;;;0.30;0.30;;;;;;;;;;5057207;28;20208;-61
2023/04/24 03:37:39;;;;;;;0.93;0.30;;;;;;;;;;5057879;28;20227;-62
2023/04/24 03:40:09;;;;;;;0.50;0.40;;;;;;;;;;5065243;28;20554;-62
2023/04/24 03:42:36;;;;;;;0.97;0.40;;;;;;;;;;5056360;28;20394;-62
2023/04/24 03:45:03;;;;;;;0.20;0.20;;;;;;;;;;5061714;28;20211;-62
2023/04/24 03:47:30;;;;;;;0.30;0.30;;;;;;;;;;5069185;28;20555;-62
2023/04/24 03:49:57;;;;;;;1.53;0.30;;;;;;;;;;5063113;28;20210;-62
2023/04/24 03:52:24;;;;;;;0.30;0.30;;;;;;;;;;5060502;28;20394;-62
2023/04/24 03:54:51;;;;;;;0.30;0.30;;;;;;;;;;5050455;28;20245;-61
2023/04/24 03:57:20;;;;;;;0.37;0.37;;;;;;;;;;5050851;28;20700;-62
2023/04/24 03:59:47;;;;;;;0.40;0.40;;;;;;;;;;5066713;28;20585;-62
2023/04/24 04:02:14;;;;;;;0.30;0.30;;;;;;;;;;5051367;28;20211;-62
2023/04/24 04:04:41;;;;;;;0.80;0.80;;;;;;;;;;5054357;28;20214;-62
2023/04/24 04:07:08;;;;;;;0.87;0.70;;;;;;;;;;5048516;28;20203;-62
2023/04/24 04:09:35;;;;;;;0.47;0.47;;;;;;;;;;5055157;28;20214;-62
2023/04/24 04:12:02;;;;;;;0.40;0.40;;;;;;;;;;5052780;28;20591;-62
2023/04/24 04:14:31;;;;;;;0.40;0.40;;;;;;;;;;5049309;28;20286;-62
2023/04/24 04:16:58;;;;;;;0.30;0.30;;;;;;;;;;5049331;28;20226;-62
2023/04/24 04:19:25;;;;;;;0.40;0.40;;;;;;;;;;5066267;28;20223;-62
2023/04/24 04:21:53;;;;;;;0.40;0.40;;;;;;;;;;5054993;28;20669;-62
2023/04/24 04:24:22;;;;;;;0.67;0.47;;;;;;;;;;5056521;28;20204;-62
2023/04/24 04:26:50;;;;;;;0.60;0.60;;;;;;;;;;5053675;28;20204;-62
2023/04/24 04:29:18;;;;;;;0.73;0.73;;;;;;;;;;5049900;28;20682;-62
2023/04/24 04:31:46;;;;;;;0.60;0.60;;;;;;;;;;5061471;28;20235;-62
2023/04/24 04:34:13;;;;;;;0.50;0.50;;;;;;;;;;5066271;28;20215;-62
2023/04/24 04:36:41;;;;;;;0.37;0.37;;;;;;;;;;5056754;28;20246;-62
2023/04/24 04:39:08;;;;;;;0.83;0.50;;;;;;;;;;5067868;28;20242;-63
2023/04/24 04:41:35;;;;;;;0.40;0.40;;;;;;;;;;5056231;28;20242;-62
2023/04/24 04:44:04;;;;;;;0.50;0.50;;;;;;;;;;5060745;28;20211;-62
2023/04/24 04:46:32;;;;;;;0.80;0.60;;;;;;;;;;5056983;28;20254;-62
2023/04/24 04:49:01;;;;;;;1.27;0.67;;;;;;;;;;5052239;28;20704;-62
2023/04/24 04:51:28;;;;;;;1.07;0.57;;;;;;;;;;5061355;28;20855;-62
2023/04/24 04:53:55;;;;;;;0.50;0.50;;;;;;;;;;5048808;28;20207;-62
2023/04/24 04:56:22;;;;;;;0.30;0.30;;;;;;;;;;5053779;28;21022;-63
2023/04/24 04:58:49;;;;;;;3.47;0.60;;;;;;;;;;5048789;28;20262;-62
2023/04/24 05:01:17;;;;;;;0.57;0.57;;;;;;;;;;5054515;28;20235;-62
2023/04/24 05:03:44;;;;;;;0.50;0.50;;;;;;;;;;5063355;28;20199;-61
2023/04/24 05:06:12;;;;;;;0.33;0.33;;;;;;;;;;5062422;28;20225;-61
2023/04/24 05:08:39;;;;;;;0.80;0.80;;;;;;;;;;5067174;28;20547;-62
2023/04/24 05:11:07;;;;;;;0.43;0.43;;;;;;;;;;5061608;28;20218;-62
2023/04/24 05:13:34;;;;;;;0.70;0.70;;;;;;;;;;5063757;28;20298;-62
2023/04/24 05:16:01;;;;;;;0.63;0.63;;;;;;;;;;5065451;28;20272;-62
2023/04/24 05:18:28;;;;;;;1.33;0.70;;;;;;;;;;5063688;28;20284;-62
2023/04/24 05:20:55;;;;;;;0.60;0.60;;;;;;;;;;5055521;28;20200;-62
2023/04/24 05:23:23;;;;;;;0.60;0.60;;;;;;;;;;5051375;28;20234;-62
2023/04/24 05:25:51;;;;;;;0.80;0.80;;;;;;;;;;5054839;28;20260;-61
2023/04/24 05:28:18;;;;;;;0.60;0.60;;;;;;;;;;5055130;28;20222;-61
2023/04/24 05:30:59;;;;;;;1.27;0.60;;;;;;;;;;5044339;28;20257;-61
2023/04/24 05:33:26;;;;;;;0.60;0.60;;;;;;;;;;5053327;28;20241;-62
2023/04/24 05:35:53;;;;;;;0.77;0.60;;;;;;;;;;5052273;28;20234;-60
2023/04/24 05:38:20;;;;;;;0.43;0.43;;;;;;;;;;5065795;28;20223;-63
2023/04/24 05:40:48;;;;;;;0.50;0.50;;;;;;;;;;5056469;28;20966;-61
2023/04/24 05:43:15;;;;;;;0.50;0.50;;;;;;;;;;5052797;28;20212;-61
2023/04/24 05:45:42;;;;;;;0.43;0.43;;;;;;;;;;5057121;28;20210;-62
2023/04/24 05:48:09;;;;;;;0.80;0.80;;;;;;;;;;5061965;28;20203;-62
2023/04/24 05:50:37;;;;;;;0.70;0.70;;;;;;;;;;5053393;28;20578;-62
2023/04/24 05:53:06;;;;;;;0.70;0.70;;;;;;;;;;5064378;28;20211;-62
2023/04/24 05:55:33;;;;;;;0.60;0.60;;;;;;;;;;5058033;28;20284;-62
2023/04/24 05:58:02;;;;;;;0.63;0.63;;;;;;;;;;5048757;28;20223;-68
2023/04/24 06:00:29;;;;;;;1.03;1.03;;;;;;;;;;5068616;28;20218;-62
2023/04/24 06:02:56;;;;;;;0.70;0.67;;;;;;;;;;5070741;28;20207;-62
2023/04/24 06:05:23;;;;;;;0.87;0.87;;;;;;;;;;5070173;28;20218;-62
2023/04/24 06:07:50;;;;;;;0.70;0.70;;;;;;;;;;5068735;28;20214;-62
2023/04/24 06:10:17;;;;;;;1.70;0.90;;;;;;;;;;5070168;28;20210;-62
2023/04/24 06:12:44;;;;;;;0.70;0.70;;;;;;;;;;5070312;28;20688;-62
2023/04/24 06:15:13;;;;;;;0.93;0.93;;;;;;;;;;5070282;28;20207;-62
2023/04/24 06:17:40;;;;;;;0.83;0.83;;;;;;;;;;5070140;28;20304;-62
2023/04/24 06:20:08;;;;;;;0.80;0.80;;;;;;;;;;5070299;28;20237;-62
2023/04/24 06:22:35;;;;;;;0.90;0.90;;;;;;;;;;5069869;28;20227;-61
2023/04/24 06:25:02;;;;;;;1.50;1.00;;;;;;;;;;5070243;28;20210;-62
2023/04/24 06:27:29;;;;;;;0.60;0.60;;;;;;;;;;5070019;28;20465;-62
2023/04/24 06:29:56;;;;;;;1.00;1.00;;;;;;;;;;5069922;28;20206;-61
2023/04/24 06:32:25;;;;;;;0.97;0.93;;;;;;;;;;5070266;28;20309;-62
2023/04/24 06:34:52;;;;;;;1.17;1.08;;;;;;;;;;5070192;28;20203;-63
2023/04/24 06:37:20;;;;;;;1.20;1.20;;;;;;;;;;5069462;28;20227;-63
2023/04/24 06:39:47;;;;;;;1.03;1.03;;;;;;;;;;5067305;28;20857;-61
2023/04/24 06:42:14;;;;;;;2.37;1.27;;;;;;;;;;5049772;28;20247;-61
2023/04/24 06:44:41;;;;;;;1.07;1.07;;;;;;;;;;5049617;28;20216;-62
2023/04/24 06:47:09;;;;;;;1.40;1.30;;;;;;;;;;5049658;28;20208;-61
2023/04/24 06:49:37;;;;;;;1.07;1.03;;;;;;;;;;5049690;28;20734;-62
2023/04/24 06:52:04;;;;;;;1.40;1.33;;;;;;;;;;5049490;28;20211;-62
2023/04/24 06:54:32;;;;;;;1.20;1.20;;;;;;;;;;5049812;28;20212;-62
2023/04/24 06:57:00;;;;;;;1.37;1.33;;;;;;;;;;5049456;28;20737;-62
2023/04/24 06:59:27;;;;;;;2.17;1.57;;;;;;;;;;5049020;28;20219;-61
2023/04/24 07:01:54;;;;;;;1.33;1.23;;;;;;;;;;5049324;28;20322;-62
2023/04/24 07:04:21;;;;;;;1.23;1.23;;;;;;;;;;5049553;28;20204;-61
2023/04/24 07:06:51;;;;;;;1.40;1.40;;;;;;;;;;5049028;28;20238;-62
2023/04/24 07:09:18;;;;;;;1.23;1.23;;;;;;;;;;5047879;28;20256;-61
2023/04/24 07:11:45;;;;;;;2.60;1.00;;;;;;;;;;5049380;28;20212;-62
2023/04/24 07:14:12;;;;;;;1.20;1.20;;;;;;;;;;5048299;28;20215;-62
2023/04/24 07:16:40;;;;;;;0.98;0.98;;;;;;;;;;5048857;28;20277;-62
2023/04/24 07:19:07;;;;;;;1.73;1.17;;;;;;;;;;5049292;28;20234;-63
2023/04/24 07:21:34;;;;;;;1.42;1.33;;;;;;;;;;5048927;28;20689;-62
2023/04/24 07:24:02;;;;;;;4.45;1.13;;;;;;;;;;5046977;28;20232;-60
2023/04/24 07:26:30;;;;;;;2.28;1.35;;;;;;;;;;5048832;28;20253;-62
2023/04/24 07:28:57;;;;;;;1.13;1.13;;;;;;;;;;5048564;28;20982;-62
2023/04/24 07:31:24;;;;;;;1.00;1.00;;;;;;;;;;5048921;28;20215;-62
2023/04/24 07:33:51;;;;;;;2.33;1.17;;;;;;;;;;5048736;28;20211;-62
2023/04/24 07:36:18;;;;;;;1.02;1.02;;;;;;;;;;5048505;28;20694;-61
2023/04/24 07:38:46;;;;;;;1.13;0.90;;;;;;;;;;5048325;28;20680;-61
2023/04/24 07:41:14;;;;;;;2.25;0.82;;;;;;;;;;5048400;28;20365;-61
2023/04/24 07:43:41;;;;;;;1.13;1.13;;;;;;;;;;5048277;28;20677;-61
2023/04/24 07:46:09;;;;;;;1.95;0.80;;;;;;;;;;5048511;28;20220;-60
2023/04/24 07:48:36;;;;;;;2.28;0.80;;;;;;;;;;5048655;28;20258;-63
2023/04/24 07:51:03;;;;;;;0.82;0.82;;;;;;;;;;5048506;28;20212;-62
2023/04/24 07:53:30;;;;;;;0.80;0.80;;;;;;;;;;5048289;28;20208;-62
2023/04/24 07:55:57;;;;;;;1.08;1.08;;;;;;;;;;5048545;28;20590;-61
2023/04/24 07:58:25;;;;;;;1.20;1.10;;;;;;;;;;5047856;28;20269;-62
2023/04/24 08:00:52;;;;;;;1.30;1.05;;;;;;;;;;5048442;28;20219;-62
2023/04/24 08:03:19;;;;;;;1.45;0.88;;;;;;;;;;5048752;28;20215;-62
2023/04/24 08:05:47;;;;;;;0.80;0.80;;;;;;;;;;5048211;28;20207;-62
2023/04/24 08:08:14;;;;;;;0.75;0.75;;;;;;;;;;5047804;28;20212;-61
2023/04/24 08:10:41;;;;;;;0.90;0.90;;;;;;;;;;5048443;28;20215;-62
2023/04/24 08:13:08;;;;;;;0.80;0.80;;;;;;;;;;5047940;28;20693;-62
2023/04/24 08:15:37;;;;;;;2.15;0.90;;;;;;;;;;5047984;28;20215;-62
2023/04/24 08:18:04;;;;;;;0.82;0.82;;;;;;;;;;5048077;28;20290;-62
2023/04/24 08:20:31;;;;;;;0.80;0.80;;;;;;;;;;5046810;28;20219;-62
2023/04/24 08:22:58;;;;;;;0.60;0.60;;;;;;;;;;5047596;28;20318;-62
2023/04/24 08:25:25;;;;;;;0.80;0.80;;;;;;;;;;5047433;28;20291;-60
2023/04/24 08:27:52;;;;;;;0.98;0.80;;;;;;;;;;5047229;28;20295;-61
2023/04/24 08:30:20;;;;;;;1.38;0.90;;;;;;;;;;5047521;28;20215;-62
2023/04/24 08:32:49;;;;;;;0.73;0.73;;;;;;;;;;5048203;28;20227;-62
2023/04/24 08:35:16;;;;;;;0.95;0.95;;;;;;;;;;5047523;28;20214;-62
2023/04/24 08:37:43;;;;;;;0.90;0.90;;;;;;;;;;5047165;28;20219;-63
2023/04/24 08:40:13;;;;;;;0.75;0.75;;;;;;;;;;5048035;28;20204;-63
2023/04/24 08:42:41;;;;;;;0.93;0.93;;;;;;;;;;5047505;28;20208;-64
2023/04/24 08:45:08;;;;;;;0.88;0.88;;;;;;;;;;5047520;28;20265;-62
2023/04/24 08:47:36;;;;;;;0.70;0.70;;;;;;;;;;5047472;28;20214;-62
2023/04/24 08:50:05;;;;;;;0.90;0.90;;;;;;;;;;5047209;28;20453;-62
2023/04/24 08:52:34;;;;;;;0.88;0.88;;;;;;;;;;5052058;28;20208;-62
2023/04/24 08:55:01;;;;;;;0.63;0.63;;;;;;;;;;5063447;28;20204;-61
2023/04/24 08:57:29;;;;;;;0.70;0.70;;;;;;;;;;5067148;28;20222;-62
2023/04/24 08:59:56;;;;;;;0.98;0.98;;;;;;;;;;5061548;28;20696;-61
2023/04/24 09:02:23;;;;;;;0.70;0.70;;;;;;;;;;5057803;28;20207;-62
2023/04/24 09:04:51;;;;;;;1.02;1.02;;;;;;;;;;5050380;28;20215;-62
2023/04/24 09:07:20;;;;;;;2.50;0.77;;;;;;;;;;5052447;28;20300;-62
2023/04/24 09:09:47;;;;;;;0.80;0.80;;;;;;;;;;5062973;28;20208;-62
2023/04/24 09:12:14;;;;;;;1.20;0.90;;;;;;;;;;5066379;28;20219;-62
2023/04/24 09:14:44;;;;;;;1.00;1.00;;;;;;;;;;5049953;28;20254;-62
2023/04/24 09:17:11;;;;;;;0.80;0.80;;;;;;;;;;5064652;28;20242;-61
2023/04/24 09:19:38;;;;;;;0.88;0.88;;;;;;;;;;5066923;28;20325;-62
2023/04/24 09:22:07;;;;;;;0.70;0.70;;;;;;;;;;5067168;28;20199;-62
2023/04/24 09:24:35;;;;;;;0.57;0.57;;;;;;;;;;5064535;28;20238;-62
2023/04/24 09:27:03;;;;;;;0.77;0.77;;;;;;;;;;5067151;28;20233;-61
2023/04/24 09:29:31;;;;;;;0.65;0.65;;;;;;;;;;5065352;28;20218;-62
2023/04/24 09:31:58;;;;;;;1.75;1.02;;;;;;;;;;5060056;28;20207;-62
2023/04/24 09:34:26;;;;;;;0.90;0.90;;;;;;;;;;5065266;28;20627;-60
2023/04/24 09:36:53;;;;;;;0.73;0.73;;;;;;;;;;5051428;28;20917;-63
2023/04/24 09:39:20;;;;;;;0.70;0.70;;;;;;;;;;5056005;28;20231;-62
2023/04/24 09:41:50;;;;;;;0.65;0.65;;;;;;;;;;5067484;28;20238;-61
2023/04/24 09:44:18;;;;;;;0.60;0.60;;;;;;;;;;5061122;28;20203;-60
2023/04/24 09:46:48;;;;;;;0.70;0.70;;;;;;;;;;5069823;28;20257;-61
2023/04/24 09:49:16;;;;;;;1.23;0.85;;;;;;;;;;5061195;28;20208;-61
2023/04/24 09:51:43;;;;;;;0.80;0.80;;;;;;;;;;5057821;28;20203;-61
2023/04/24 09:54:16;;;;;;;0.65;0.65;;;;;;;;;;5054766;28;20214;-61
2023/04/24 09:56:44;;;;;;;1.10;0.60;;;;;;;;;;5064548;28;20280;-61
2023/04/24 09:59:13;;;;;;;0.60;0.60;;;;;;;;;;5070489;28;20318;-61
2023/04/24 10:01:42;;;;;;;0.52;0.52;;;;;;;;;;5069798;28;20206;-61
2023/04/24 10:04:17;;;;;;;0.57;0.57;;;;;;;;;;5068949;28;20226;-63
2023/04/24 10:06:44;;;;;;;1.02;0.52;;;;;;;;;;5050211;28;20304;-61
2023/04/24 10:09:12;;;;;;;0.47;0.47;;;;;;;;;;5063862;28;20260;-61
2023/04/24 10:11:42;;;;;;;0.85;0.85;;;;;;;;;;5070098;28;20223;-60
2023/04/24 10:14:11;;;;;;;0.50;0.50;;;;;;;;;;5060077;28;20212;-61
2023/04/24 10:16:41;;;;;;;0.57;0.57;;;;;;;;;;5056529;28;20238;-61
2023/04/24 10:19:08;;;;;;;0.45;0.45;;;;;;;;;;5068712;28;20329;-61
2023/04/24 10:21:37;;;;;;;0.90;0.70;;;;;;;;;;5069600;28;20212;-61
2023/04/24 10:24:04;;;;;;;1.15;0.80;;;;;;;;;;5069007;28;20233;-61
2023/04/24 10:26:31;;;;;;;0.93;0.93;;;;;;;;;;5069317;28;20211;-61
2023/04/24 10:29:00;;;;;;;4.30;0.60;;;;;;;;;;5068937;28;20206;-61
2023/04/24 10:31:27;;;;;;;0.50;0.50;;;;;;;;;;5061441;28;20203;-61
2023/04/24 10:33:57;;;;;;;0.45;0.45;;;;;;;;;;5060705;28;20621;-61
2023/04/24 10:36:26;;;;;;;2.83;0.80;;;;;;;;;;5064069;28;20204;-61
2023/04/24 10:38:54;;;;;;;0.65;0.65;;;;;;;;;;5061510;28;20255;-61
2023/04/24 10:41:23;;;;;;;0.75;0.75;;;;;;;;;;5067644;28;20235;-61
2023/04/24 10:43:50;;;;;;;0.88;0.88;;;;;;;;;;5067289;28;20211;-61
2023/04/24 10:46:20;;;;;;;1.08;1.00;;;;;;;;;;5056274;28;20615;-61
2023/04/24 10:48:54;;;;;;;4.18;0.93;;;;;;;;;;5063221;28;20207;-61
2023/04/24 10:51:23;;;;;;;0.70;0.70;;;;;;;;;;5065207;28;20718;-61
2023/04/24 10:53:51;;;;;;;1.65;0.85;;;;;;;;;;5050453;28;20200;-61
2023/04/24 10:56:18;;;;;;;0.70;0.70;;;;;;;;;;5060050;28;20230;-61
2023/04/24 10:58:47;;;;;;;0.82;0.82;;;;;;;;;;5063583;28;21675;-61
2023/04/24 11:01:25;;;;;;;1.65;1.33;;;;;;;;;;5064716;28;20637;-61
2023/04/24 11:03:56;;;;;;;2.28;1.00;;;;;;;;;;5056718;28;20298;-62
2023/04/24 11:06:32;;;;;;;2.00;1.27;;;;;;;;;;5061582;28;20298;-62
2023/04/24 11:09:03;;;;;;;1.05;1.05;;;;;;;;;;5068803;28;20219;-62
2023/04/24 11:11:31;;;;;;;0.60;0.60;;;;;;;;;;5068730;28;20318;-62
2023/04/24 11:14:06;;;;;;;1.17;0.70;;;;;;;;;;5069180;28;20260;-61
2023/04/24 11:16:34;;;;;;;0.43;0.43;;;;;;;;;;5068093;28;20235;-62
2023/04/24 11:19:05;;;;;;;0.40;0.40;;;;;;;;;;5068350;28;20349;-62
2023/04/24 11:21:34;;;;;;;0.35;0.35;;;;;;;;;;5068538;28;20918;-62
2023/04/24 11:24:16;;;;;;;0.60;0.60;;;;;;;;;;5068324;28;20275;-62
2023/04/24 11:26:43;;;;;;;0.68;0.68;;;;;;;;;;5067865;28;20215;-62
2023/04/24 11:29:10;;;;;;;0.47;0.47;;;;;;;;;;5068405;28;20202;-61
2023/04/24 11:31:38;;;;;;;0.60;0.60;;;;;;;;;;5068479;28;20243;-62
2023/04/24 11:34:10;;;;;;;0.30;0.30;;;;;;;;;;5066287;28;20211;-61
2023/04/24 11:36:38;;;;;;;0.50;0.47;;;;;;;;;;5068248;28;20213;-62
2023/04/24 11:39:06;;;;;;;0.50;0.50;;;;;;;;;;5058860;28;20379;-61
2023/04/24 11:41:33;;;;;;;0.45;0.45;;;;;;;;;;5063584;28;20234;-62
2023/04/24 11:44:00;;;;;;;0.30;0.30;;;;;;;;;;5067530;28;20222;-62
2023/04/24 11:46:31;;;;;;;0.40;0.40;;;;;;;;;;5056789;28;20669;-62
2023/04/24 11:48:59;;;;;;;0.30;0.30;;;;;;;;;;5068278;28;20202;-62
2023/04/24 11:51:26;;;;;;;0.35;0.35;;;;;;;;;;5065350;28;20207;-63
2023/04/24 11:53:55;;;;;;;0.43;0.43;;;;;;;;;;5062891;28;20199;-62
2023/04/24 11:56:22;;;;;;;0.65;0.40;;;;;;;;;;5067257;28;20625;-61
2023/04/24 11:58:49;;;;;;;0.50;0.50;;;;;;;;;;5065771;28;20203;-63
2023/04/24 12:01:17;;;;;;;0.60;0.60;;;;;;;;;;5053938;28;20211;-62
2023/04/24 12:03:48;;;;;;;0.68;0.68;;;;;;;;;;5059411;28;20222;-62
2023/04/24 12:06:15;;;;;;;0.60;0.60;;;;;;;;;;5066734;28;20203;-62
2023/04/24 12:08:42;;;;;;;1.48;0.90;;;;;;;;;;5065867;28;20202;-62
2023/04/24 12:11:11;;;;;;;0.75;0.75;;;;;;;;;;5065077;28;20265;-62
2023/04/24 12:13:38;;;;;;;2.63;0.80;;;;;;;;;;5062195;28;20234;-62
2023/04/24 12:16:06;;;;;;;0.57;0.57;;;;;;;;;;5056455;28;20282;-61
2023/04/24 12:18:33;;;;;;;0.93;0.85;;;;;;;;;;5065797;28;20202;-60
2023/04/24 12:21:19;;;;;;;0.77;0.77;;;;;;;;;;5058697;28;20658;-62
2023/04/24 12:23:46;;;;;;;0.77;0.77;;;;;;;;;;5047316;28;20224;-62
2023/04/24 12:26:17;;;;;;;0.60;0.60;;;;;;;;;;5053149;28;20207;-62
2023/04/24 12:28:44;;;;;;;18.25;6.45;;;;;;;;;;5061644;28;20929;-63
2023/04/24 12:31:11;;;;;;;3.13;1.98;;;;;;;;;;5060444;28;20638;-63
2023/04/24 12:33:38;;;;;;;1.13;1.13;;;;;;;;;;5051332;28;20203;-63
2023/04/24 12:36:06;;;;;;;1.30;0.95;;;;;;;;;;5065015;28;20211;-63
2023/04/24 12:38:39;;;;;;;2.58;2.42;;;;;;;;;;5063085;28;20215;-63
2023/04/24 12:41:07;;;;;;;3.03;2.92;;;;;;;;;;5054319;28;20235;-64
2023/04/24 12:43:36;;;;;;;1.60;1.50;;;;;;;;;;5063630;28;20207;-63
2023/04/24 12:46:03;;;;;;;2.65;2.45;;;;;;;;;;5047036;28;20230;-64
2023/04/24 12:48:31;;;;;;;1.42;1.40;;;;;;;;;;5045636;28;20290;-63
2023/04/24 12:51:01;;;;;;;1.63;1.63;;;;;;;;;;5056181;28;20198;-63
2023/04/24 12:53:29;;;;;;;1.05;1.05;;;;;;;;;;5048968;28;20239;-63
2023/04/24 12:55:56;;;;;;;1.42;1.42;;;;;;;;;;5057465;28;20721;-63
2023/04/24 12:58:23;;;;;;;1.38;1.02;;;;;;;;;;5067097;28;20212;-63
2023/04/24 13:00:52;;;;;;;1.73;1.17;;;;;;;;;;5058950;28;20223;-64
2023/04/24 13:03:19;;;;;;;1.38;1.30;;;;;;;;;;5061621;28;20272;-63
2023/04/24 13:05:46;;;;;;;1.40;1.40;;;;;;;;;;5056936;28;20207;-63
2023/04/24 13:08:13;;;;;;;1.55;1.45;;;;;;;;;;5064026;28;20219;-63
2023/04/24 13:10:41;;;;;;;1.98;1.88;;;;;;;;;;5065615;28;20284;-63
2023/04/24 13:13:08;;;;;;;1.65;1.58;;;;;;;;;;5064881;28;20301;-63
2023/04/24 13:15:35;;;;;;;1.30;1.30;;;;;;;;;;5065014;28;20672;-63
2023/04/24 13:18:04;;;;;;;1.42;1.33;;;;;;;;;;5063262;28;20269;-63
2023/04/24 13:20:31;;;;;;;1.17;1.17;;;;;;;;;;5054105;28;20215;-63
2023/04/24 13:22:58;;;;;;;1.08;1.08;;;;;;;;;;5057207;28;20242;-63
2023/04/24 13:25:26;;;;;;;1.35;1.10;;;;;;;;;;5046436;28;20824;-63
2023/04/24 13:27:53;;;;;;;1.17;1.08;;;;;;;;;;5055535;28;20206;-63
2023/04/24 13:30:20;;;;;;;1.02;1.00;;;;;;;;;;5066419;28;20570;-64
2023/04/24 13:32:47;;;;;;;2.17;1.00;;;;;;;;;;5066364;28;20284;-63
2023/04/24 13:35:15;;;;;;;1.00;1.00;;;;;;;;;;5066645;28;20241;-63
2023/04/24 13:37:43;;;;;;;1.20;1.20;;;;;;;;;;5050606;28;20666;-63
2023/04/24 13:40:10;;;;;;;0.93;0.93;;;;;;;;;;5046295;28;20235;-63
2023/04/24 13:42:37;;;;;;;1.00;1.00;;;;;;;;;;5056601;28;20735;-63
2023/04/24 13:45:05;;;;;;;1.25;1.20;;;;;;;;;;5066124;28;20907;-63
2023/04/24 13:47:41;;;;;;;1.30;1.20;;;;;;;;;;5063044;28;20208;-63
2023/04/24 13:50:12;;;;;;;1.15;1.15;;;;;;;;;;5057690;28;20326;-63
2023/04/24 13:52:40;;;;;;;1.27;1.23;;;;;;;;;;5056855;28;20231;-63
2023/04/24 13:55:08;;;;;;;1.27;1.27;;;;;;;;;;5057719;28;20211;-63
2023/04/24 13:57:35;;;;;;;1.35;1.25;;;;;;;;;;5050679;28;20211;-64
2023/04/24 14:00:03;;;;;;;1.20;1.20;;;;;;;;;;5062983;28;20612;-62
2023/04/24 14:02:30;;;;;;;1.48;1.38;;;;;;;;;;5065533;28;20237;-62
2023/04/24 14:04:57;;;;;;;1.65;1.55;;;;;;;;;;5066204;28;20198;-63
2023/04/24 14:07:25;;;;;;;1.33;1.10;;;;;;;;;;5061085;28;20207;-63
2023/04/24 14:09:54;;;;;;;1.33;1.30;;;;;;;;;;5052149;28;20429;-60
2023/04/24 14:12:21;;;;;;;1.13;1.13;;;;;;;;;;5043608;28;20215;-62
2023/04/24 14:14:48;;;;;;;1.52;1.42;;;;;;;;;;5046963;28;20199;-63
2023/04/24 14:17:16;;;;;;;1.30;1.23;;;;;;;;;;5056703;28;20290;-63
2023/04/24 14:19:43;;;;;;;1.02;1.02;;;;;;;;;;5064092;28;20677;-62
2023/04/24 14:22:11;;;;;;;1.15;1.10;;;;;;;;;;5054686;28;20206;-63
2023/04/24 14:24:38;;;;;;;1.02;0.93;;;;;;;;;;5067273;28;20207;-62
2023/04/24 14:27:07;;;;;;;10.57;1.20;;;;;;;;;;5059965;28;20214;-62
2023/04/24 14:29:34;;;;;;;1.08;1.08;;;;;;;;;;5053894;28;20217;-63
2023/04/24 14:32:01;;;;;;;1.20;1.20;;;;;;;;;;5062442;28;20210;-63
2023/04/24 14:34:28;;;;;;;1.45;1.13;;;;;;;;;;5059461;28;20202;-63
2023/04/24 14:36:55;;;;;;;1.40;1.40;;;;;;;;;;5055679;28;20226;-63
2023/04/24 14:39:22;;;;;;;3.40;2.88;;;;;;;;;;5058648;28;20239;-63
2023/04/24 14:41:49;;;;;;;2.25;2.00;;;;;;;;;;5050426;28;20297;-63
2023/04/24 14:44:17;;;;;;;1.55;1.55;;;;;;;;;;5050281;28;20208;-63
2023/04/24 14:46:44;;;;;;;1.55;1.52;;;;;;;;;;5051814;28;20218;-63